Time;durP1;ratioP1;P1;durP2;ratioP2;P2;SDS_P1;SDS_P2;PMS_P1;PMS_P2;Temp;Humidity;BMP_temperature;BMP_pressure;BME280_temperature;BME280_humidity;BME280_pressure;Samples;Min_cycle;Max_cycle;Signal;HPM_P1;HPM_P2
2024/01/17 00:00:50;;;;;;;10.50;6.50;;;0.90;99.90;;;;;;5071958;28;20029;-83
2024/01/17 00:03:15;;;;;;;10.88;6.93;;;0.90;99.90;;;;;;5072158;28;20029;-83
2024/01/17 00:05:41;;;;;;;9.80;6.75;;;0.90;99.90;;;;;;5039049;28;20415;-83
2024/01/17 00:08:09;;;;;;;12.35;7.00;;;0.90;99.90;;;;;;5071858;28;20491;-83
2024/01/17 00:10:34;;;;;;;13.43;7.50;;;0.90;99.90;;;;;;5072088;28;20116;-83
2024/01/17 00:13:02;;;;;;;13.38;7.15;;;0.90;99.90;;;;;;5071847;28;20060;-83
2024/01/17 00:15:28;;;;;;;11.45;7.18;;;0.90;99.90;;;;;;5054865;28;20039;-83
2024/01/17 00:17:53;;;;;;;12.23;7.20;;;0.80;99.90;;;;;;5055148;28;20028;-83
2024/01/17 00:20:19;;;;;;;14.50;7.38;;;0.80;99.90;;;;;;5072518;28;20465;-83
2024/01/17 00:22:45;;;;;;;13.93;6.60;;;0.80;99.90;;;;;;5072158;28;20021;-83
2024/01/17 00:25:11;;;;;;;11.85;6.00;;;0.80;99.90;;;;;;5072352;28;20463;-83
2024/01/17 00:27:38;;;;;;;11.20;6.75;;;0.80;99.90;;;;;;5072404;28;20112;-83
2024/01/17 00:30:04;;;;;;;10.23;6.82;;;0.80;99.90;;;;;;5074930;28;20020;-83
2024/01/17 00:32:31;;;;;;;12.55;6.85;;;0.80;99.90;;;;;;5096555;28;20021;-83
2024/01/17 00:34:57;;;;;;;9.27;6.25;;;0.80;99.90;;;;;;5080382;28;20020;-82
2024/01/17 00:37:23;;;;;;;10.15;7.07;;;0.80;99.90;;;;;;5094188;28;20024;-83
2024/01/17 00:39:57;;;;;;;12.13;7.03;;;0.80;99.90;;;;;;5084268;28;20020;-83
2024/01/17 00:42:22;;;;;;;9.27;6.15;;;0.80;99.90;;;;;;5064401;28;20020;-83
2024/01/17 00:44:48;;;;;;;9.73;5.85;;;0.80;99.90;;;;;;5075894;28;20039;-83
2024/01/17 00:47:14;;;;;;;10.13;6.25;;;0.70;99.90;;;;;;5042754;28;20464;-83
2024/01/17 00:49:39;;;;;;;13.40;6.45;;;0.80;99.90;;;;;;5058664;28;20032;-83
2024/01/17 00:52:05;;;;;;;8.82;5.72;;;0.70;99.90;;;;;;5058692;28;20032;-83
2024/01/17 00:54:31;;;;;;;11.43;5.90;;;0.70;99.90;;;;;;5075308;28;20120;-83
2024/01/17 00:56:58;;;;;;;13.07;6.68;;;0.70;99.90;;;;;;5075213;28;20123;-83
2024/01/17 00:59:24;;;;;;;10.98;6.90;;;0.70;99.90;;;;;;5075245;28;20029;-83
2024/01/17 01:01:49;;;;;;;10.45;6.20;;;0.70;99.90;;;;;;5074983;28;20120;-82
2024/01/17 01:04:15;;;;;;;12.18;6.30;;;0.70;99.90;;;;;;5058519;28;20025;-83
2024/01/17 01:06:41;;;;;;;11.43;5.95;;;0.70;99.90;;;;;;5041952;28;20040;-83
2024/01/17 01:09:06;;;;;;;9.65;5.97;;;0.70;99.90;;;;;;5076190;28;20032;-83
2024/01/17 01:11:33;;;;;;;10.48;6.28;;;0.70;99.90;;;;;;5075630;28;20031;-83
2024/01/17 01:13:59;;;;;;;11.13;6.63;;;0.70;99.90;;;;;;5074859;28;20448;-83
2024/01/17 01:16:25;;;;;;;10.05;6.60;;;0.70;99.90;;;;;;5075274;28;20033;-83
2024/01/17 01:18:51;;;;;;;9.02;5.88;;;0.70;99.90;;;;;;5075710;28;20031;-83
2024/01/17 01:21:16;;;;;;;9.73;6.28;;;0.70;99.90;;;;;;5075146;28;20020;-83
2024/01/17 01:23:42;;;;;;;10.30;6.43;;;0.70;99.90;;;;;;5041689;28;20052;-83
2024/01/17 01:26:08;;;;;;;9.43;6.22;;;0.70;99.90;;;;;;5058154;28;20167;-82
2024/01/17 01:28:34;;;;;;;10.07;5.60;;;0.70;99.90;;;;;;5058281;28;20029;-82
2024/01/17 01:31:00;;;;;;;12.50;6.07;;;0.70;99.90;;;;;;5074440;28;20025;-83
2024/01/17 01:33:26;;;;;;;11.88;5.85;;;0.70;99.90;;;;;;5074907;28;20108;-83
2024/01/17 01:35:51;;;;;;;11.50;6.43;;;0.70;99.90;;;;;;5074699;28;20040;-82
2024/01/17 01:38:17;;;;;;;10.82;6.45;;;0.70;99.90;;;;;;5041722;28;20055;-82
2024/01/17 01:40:43;;;;;;;11.73;6.30;;;0.70;99.90;;;;;;5058590;28;20025;-82
2024/01/17 01:43:18;;;;;;;12.85;6.88;;;0.60;99.90;;;;;;5060612;28;20392;-83
2024/01/17 01:45:54;;;;;;;11.93;6.55;;;0.60;99.90;;;;;;5084911;28;20040;-82
2024/01/17 01:48:20;;;;;;;11.73;6.07;;;0.60;99.90;;;;;;5099453;28;20024;-82
2024/01/17 01:50:46;;;;;;;9.70;6.03;;;0.60;99.90;;;;;;5063853;28;20033;-84
2024/01/17 01:53:12;;;;;;;10.23;5.40;;;0.50;99.90;;;;;;5081607;28;20071;-84
2024/01/17 01:55:38;;;;;;;12.00;6.25;;;0.50;99.90;;;;;;5076042;28;20086;-83
2024/01/17 01:58:04;;;;;;;10.00;5.85;;;0.50;99.90;;;;;;5040740;28;20060;-83
2024/01/17 02:00:29;;;;;;;9.98;6.30;;;0.50;99.90;;;;;;5074184;28;20029;-83
2024/01/17 02:02:55;;;;;;;9.85;6.00;;;0.40;99.90;;;;;;5074291;28;20032;-83
2024/01/17 02:05:21;;;;;;;11.60;6.15;;;0.40;99.90;;;;;;5074288;28;20078;-83
2024/01/17 02:07:49;;;;;;;10.57;6.15;;;0.40;99.90;;;;;;5041239;28;20041;-83
2024/01/17 02:10:15;;;;;;;12.10;6.78;;;0.40;99.90;;;;;;5057332;28;20474;-83
2024/01/17 02:12:43;;;;;;;10.85;6.22;;;0.40;99.90;;;;;;5057866;28;20043;-83
2024/01/17 02:15:09;;;;;;;13.13;6.50;;;0.40;99.90;;;;;;5073802;28;20097;-83
2024/01/17 02:17:34;;;;;;;10.30;6.03;;;0.40;99.90;;;;;;5057501;28;20468;-83
2024/01/17 02:20:03;;;;;;;10.13;6.60;;;0.30;99.90;;;;;;5075158;28;20471;-82
2024/01/17 02:22:28;;;;;;;12.93;5.93;;;0.30;99.90;;;;;;5073561;28;20029;-83
2024/01/17 02:24:54;;;;;;;11.00;6.65;;;0.30;99.90;;;;;;5057631;28;20046;-83
2024/01/17 02:27:20;;;;;;;13.65;6.78;;;0.30;99.90;;;;;;5073543;28;20059;-83
2024/01/17 02:29:47;;;;;;;10.05;6.22;;;0.30;99.90;;;;;;5073941;28;20498;-82
2024/01/17 02:32:13;;;;;;;9.63;6.45;;;0.20;99.90;;;;;;5057434;28;20032;-83
2024/01/17 02:34:39;;;;;;;9.32;6.03;;;0.20;99.90;;;;;;5056920;28;20569;-83
2024/01/17 02:37:09;;;;;;;11.60;6.63;;;0.20;99.90;;;;;;5056583;28;20078;-83
2024/01/17 02:39:35;;;;;;;11.63;6.70;;;0.20;99.90;;;;;;5075220;28;20017;-82
2024/01/17 02:42:00;;;;;;;12.05;6.07;;;0.10;99.90;;;;;;5056715;28;20033;-82
2024/01/17 02:44:26;;;;;;;12.73;6.43;;;0.10;99.90;;;;;;5073375;28;20530;-82
2024/01/17 02:46:51;;;;;;;11.98;6.38;;;0.10;99.90;;;;;;5074556;28;20032;-82
2024/01/17 02:49:19;;;;;;;9.75;6.50;;;0.10;99.90;;;;;;5073201;28;20021;-82
2024/01/17 02:51:45;;;;;;;8.48;6.15;;;0.10;99.90;;;;;;5056850;28;20025;-82
2024/01/17 02:54:11;;;;;;;10.52;6.00;;;0.10;99.90;;;;;;5056860;28;20518;-82
2024/01/17 02:56:36;;;;;;;11.32;6.85;;;0.10;99.90;;;;;;5073169;28;20135;-82
2024/01/17 02:59:02;;;;;;;13.02;6.32;;;0.00;99.90;;;;;;5041600;28;20388;-81
2024/01/17 03:01:28;;;;;;;10.73;5.72;;;0.00;99.90;;;;;;5096359;28;20032;-82
2024/01/17 03:03:54;;;;;;;8.25;5.47;;;0.00;99.90;;;;;;5064930;28;20035;-81
2024/01/17 03:06:20;;;;;;;10.15;5.80;;;0.10;99.90;;;;;;5064870;28;20066;-82
2024/01/17 03:08:45;;;;;;;10.80;6.45;;;0.00;99.90;;;;;;5069760;28;20419;-83
2024/01/17 03:11:11;;;;;;;10.25;6.40;;;0.00;99.90;;;;;;5056366;28;20032;-82
2024/01/17 03:13:37;;;;;;;9.43;6.00;;;0.00;99.90;;;;;;5056590;28;20123;-82
2024/01/17 03:16:05;;;;;;;11.05;6.00;;;0.00;99.90;;;;;;5056187;28;20035;-82
2024/01/17 03:18:31;;;;;;;8.80;5.78;;;0.00;99.90;;;;;;5056321;28;20067;-82
2024/01/17 03:20:57;;;;;;;12.15;6.28;;;0.00;99.90;;;;;;5039613;28;20025;-82
2024/01/17 03:23:22;;;;;;;11.10;6.15;;;-0.10;99.90;;;;;;5056034;28;20479;-82
2024/01/17 03:25:48;;;;;;;9.85;6.10;;;0.00;99.90;;;;;;5039374;28;20032;-82
2024/01/17 03:28:14;;;;;;;11.38;6.50;;;0.00;99.90;;;;;;5055588;28;20128;-82
2024/01/17 03:30:39;;;;;;;12.60;6.47;;;0.00;99.90;;;;;;5055906;28;20033;-82
2024/01/17 03:33:05;;;;;;;10.30;5.72;;;0.00;99.90;;;;;;5039307;28;20089;-82
2024/01/17 03:35:31;;;;;;;9.65;6.30;;;0.00;99.90;;;;;;5072307;28;20068;-82
2024/01/17 03:37:57;;;;;;;10.02;6.03;;;0.10;99.90;;;;;;5055774;28;20077;-82
2024/01/17 03:40:23;;;;;;;10.00;6.03;;;0.10;99.90;;;;;;5072247;28;20133;-82
2024/01/17 03:42:49;;;;;;;9.35;6.40;;;0.10;99.90;;;;;;5073288;28;20411;-82
2024/01/17 03:45:14;;;;;;;11.55;6.97;;;0.10;99.90;;;;;;5055560;28;20055;-82
2024/01/17 03:47:40;;;;;;;10.13;6.43;;;0.10;99.90;;;;;;5072375;28;20043;-82
2024/01/17 03:50:06;;;;;;;11.77;6.15;;;0.10;99.90;;;;;;5055303;28;20024;-82
2024/01/17 03:52:31;;;;;;;10.48;6.20;;;0.10;99.90;;;;;;5055640;28;20035;-82
2024/01/17 03:54:58;;;;;;;11.48;6.82;;;0.00;99.90;;;;;;5072282;28;20032;-82
2024/01/17 03:57:23;;;;;;;14.43;6.35;;;0.00;99.90;;;;;;5055365;28;20052;-82
2024/01/17 03:59:49;;;;;;;10.90;6.38;;;0.00;99.90;;;;;;5072266;28;20036;-83
2024/01/17 04:02:15;;;;;;;9.38;6.00;;;0.10;99.90;;;;;;5055617;28;20089;-82
2024/01/17 04:04:41;;;;;;;8.70;6.18;;;0.10;99.90;;;;;;5073621;28;20037;-82
2024/01/17 04:07:10;;;;;;;11.40;6.60;;;0.10;99.90;;;;;;5072288;28;20491;-82
2024/01/17 04:09:36;;;;;;;10.63;6.43;;;0.10;99.90;;;;;;5072971;28;20040;-82
2024/01/17 04:12:02;;;;;;;9.45;6.03;;;0.10;99.90;;;;;;5059116;28;20025;-82
2024/01/17 04:14:28;;;;;;;13.63;6.47;;;0.10;99.90;;;;;;5073100;28;20012;-80
2024/01/17 04:16:53;;;;;;;13.50;7.15;;;0.10;99.90;;;;;;5101571;28;20017;-82
2024/01/17 04:19:19;;;;;;;10.52;6.40;;;0.10;99.90;;;;;;5084507;28;20015;-82
2024/01/17 04:21:45;;;;;;;14.20;6.60;;;0.00;99.90;;;;;;5090892;28;20495;-82
2024/01/17 04:24:10;;;;;;;8.68;5.88;;;0.10;99.90;;;;;;5076525;28;20111;-82
2024/01/17 04:26:36;;;;;;;9.63;5.88;;;0.10;99.90;;;;;;5059429;28;20040;-82
2024/01/17 04:29:02;;;;;;;11.32;6.38;;;0.10;99.90;;;;;;5076096;28;20158;-82
2024/01/17 04:31:30;;;;;;;9.20;5.80;;;0.10;99.90;;;;;;5075265;28;20032;-80
2024/01/17 04:33:57;;;;;;;10.90;6.68;;;0.10;99.90;;;;;;5059292;28;20094;-81
2024/01/17 04:36:26;;;;;;;11.40;6.25;;;0.00;99.90;;;;;;5075592;28;20048;-81
2024/01/17 04:38:52;;;;;;;9.60;6.00;;;0.00;99.90;;;;;;5076706;28;20384;-81
2024/01/17 04:41:18;;;;;;;10.60;6.25;;;0.00;99.90;;;;;;5076673;28;20035;-81
2024/01/17 04:43:44;;;;;;;11.43;6.80;;;0.00;99.90;;;;;;5076023;28;20028;-82
2024/01/17 04:46:13;;;;;;;11.65;6.78;;;0.00;99.90;;;;;;5076785;28;20146;-82
2024/01/17 04:48:43;;;;;;;9.70;6.47;;;0.00;99.90;;;;;;5075997;28;20028;-82
2024/01/17 04:51:10;;;;;;;9.88;6.13;;;0.00;99.90;;;;;;5076938;28;20416;-82
2024/01/17 04:53:43;;;;;;;11.25;6.78;;;0.00;99.90;;;;;;5075516;28;20025;-82
2024/01/17 04:56:11;;;;;;;10.93;6.38;;;0.00;99.90;;;;;;5075814;28;20051;-82
2024/01/17 04:58:37;;;;;;;10.75;6.47;;;0.00;99.90;;;;;;5074950;28;20466;-82
2024/01/17 05:01:06;;;;;;;10.60;6.20;;;0.00;99.90;;;;;;5058627;28;20123;-82
2024/01/17 05:03:32;;;;;;;12.05;7.20;;;0.00;99.90;;;;;;5058839;28;20029;-82
2024/01/17 05:05:59;;;;;;;10.05;6.53;;;0.00;99.90;;;;;;5074935;28;20025;-82
2024/01/17 05:08:24;;;;;;;18.20;7.10;;;0.00;99.90;;;;;;5058504;28;20071;-82
2024/01/17 05:10:50;;;;;;;12.00;6.82;;;0.00;99.90;;;;;;5075304;28;20036;-82
2024/01/17 05:13:16;;;;;;;10.77;7.05;;;0.00;99.90;;;;;;5042109;28;20040;-83
2024/01/17 05:15:42;;;;;;;12.57;7.15;;;0.00;99.90;;;;;;5075057;28;20468;-82
2024/01/17 05:18:08;;;;;;;11.82;7.55;;;0.00;99.90;;;;;;5075107;28;20465;-82
2024/01/17 05:20:35;;;;;;;11.52;7.28;;;-0.10;99.90;;;;;;5074997;28;20372;-82
2024/01/17 05:23:01;;;;;;;13.68;7.70;;;-0.10;99.90;;;;;;5075437;28;20111;-82
2024/01/17 05:25:29;;;;;;;12.90;7.78;;;-0.10;99.90;;;;;;5058705;28;20063;-82
2024/01/17 05:27:55;;;;;;;11.57;7.57;;;-0.10;99.90;;;;;;5076304;28;20032;-81
2024/01/17 05:30:24;;;;;;;13.23;7.50;;;-0.20;99.90;;;;;;5061466;28;20084;-81
2024/01/17 05:32:50;;;;;;;12.82;7.28;;;-0.20;99.90;;;;;;5099544;28;20051;-80
2024/01/17 05:35:16;;;;;;;13.00;8.00;;;-0.20;99.90;;;;;;5095570;28;20033;-81
2024/01/17 05:37:43;;;;;;;10.73;7.20;;;-0.20;99.90;;;;;;5058339;28;20456;-81
2024/01/17 05:40:12;;;;;;;12.85;7.05;;;-0.20;99.90;;;;;;5074914;28;20044;-81
2024/01/17 05:42:39;;;;;;;13.80;7.78;;;-0.20;99.90;;;;;;5058408;28;20025;-80
2024/01/17 05:45:07;;;;;;;12.73;7.20;;;-0.20;99.90;;;;;;5058025;28;20033;-80
2024/01/17 05:47:36;;;;;;;11.63;6.93;;;-0.20;99.90;;;;;;5057807;28;20043;-81
2024/01/17 05:50:03;;;;;;;12.00;7.63;;;-0.20;99.90;;;;;;5074456;28;20055;-82
2024/01/17 05:52:30;;;;;;;13.98;7.68;;;-0.20;99.90;;;;;;5075623;28;20021;-80
2024/01/17 05:54:56;;;;;;;11.00;7.00;;;-0.20;99.90;;;;;;5075765;28;20087;-81
2024/01/17 05:57:22;;;;;;;13.07;7.32;;;-0.30;99.90;;;;;;5073886;28;20410;-82
2024/01/17 05:59:48;;;;;;;10.77;7.05;;;-0.30;99.90;;;;;;5057442;28;20453;-81
2024/01/17 06:02:14;;;;;;;12.30;7.43;;;-0.30;99.90;;;;;;5074106;28;20468;-81
2024/01/17 06:04:40;;;;;;;11.25;7.30;;;-0.30;99.90;;;;;;5040844;28;20039;-81
2024/01/17 06:07:05;;;;;;;10.32;7.38;;;-0.30;99.90;;;;;;5074076;28;20029;-81
2024/01/17 06:09:31;;;;;;;14.10;7.57;;;-0.30;99.90;;;;;;5073895;28;20028;-80
2024/01/17 06:11:57;;;;;;;13.13;7.88;;;-0.30;99.90;;;;;;5057351;28;20029;-81
2024/01/17 06:14:22;;;;;;;12.57;7.38;;;-0.30;99.90;;;;;;5057410;28;20102;-81
2024/01/17 06:16:48;;;;;;;12.50;7.72;;;-0.30;99.90;;;;;;5073456;28;20614;-80
2024/01/17 06:19:15;;;;;;;10.05;7.43;;;-0.30;99.90;;;;;;5073628;28;20027;-81
2024/01/17 06:21:41;;;;;;;10.77;7.70;;;-0.30;99.90;;;;;;5073604;28;20030;-81
2024/01/17 06:24:06;;;;;;;13.45;7.95;;;-0.30;99.90;;;;;;5073689;28;20443;-80
2024/01/17 06:26:35;;;;;;;13.25;7.70;;;-0.30;99.90;;;;;;5073421;28;20032;-80
2024/01/17 06:29:00;;;;;;;15.57;7.47;;;-0.30;99.90;;;;;;5073895;28;20495;-81
2024/01/17 06:31:26;;;;;;;11.60;7.55;;;-0.30;99.90;;;;;;5073785;28;20028;-80
2024/01/17 06:33:52;;;;;;;10.73;7.28;;;-0.30;99.90;;;;;;5074191;28;20055;-80
2024/01/17 06:36:22;;;;;;;10.18;6.78;;;-0.30;99.90;;;;;;5074582;28;20032;-80
2024/01/17 06:38:48;;;;;;;12.10;7.30;;;-0.30;99.90;;;;;;5075312;28;20032;-79
2024/01/17 06:41:14;;;;;;;14.00;7.05;;;-0.30;99.90;;;;;;5063344;28;20066;-80
2024/01/17 06:43:39;;;;;;;11.82;7.18;;;-0.30;99.90;;;;;;5063106;28;20020;-80
2024/01/17 06:46:05;;;;;;;12.43;7.40;;;-0.30;99.90;;;;;;5081025;28;20032;-80
2024/01/17 06:48:32;;;;;;;10.45;7.13;;;-0.30;99.90;;;;;;5094908;28;20033;-80
2024/01/17 06:50:57;;;;;;;14.00;7.65;;;-0.30;99.90;;;;;;5075933;28;20460;-81
2024/01/17 06:53:23;;;;;;;13.90;7.60;;;-0.30;99.90;;;;;;5040424;28;20031;-80
2024/01/17 06:55:49;;;;;;;11.35;7.03;;;-0.30;99.90;;;;;;5039902;28;20341;-80
2024/01/17 06:58:15;;;;;;;14.20;7.28;;;-0.30;99.90;;;;;;5091217;28;20559;-80
2024/01/17 07:00:41;;;;;;;12.32;7.78;;;-0.30;99.90;;;;;;5094287;28;20034;-80
2024/01/17 07:03:07;;;;;;;12.25;7.60;;;-0.30;99.90;;;;;;5076078;28;20050;-81
2024/01/17 07:05:32;;;;;;;12.63;7.10;;;-0.30;99.90;;;;;;5059495;28;20032;-82
2024/01/17 07:07:58;;;;;;;11.57;7.70;;;-0.30;99.90;;;;;;5075860;28;20073;-81
2024/01/17 07:10:24;;;;;;;11.65;7.35;;;-0.30;99.90;;;;;;5059747;28;20062;-81
2024/01/17 07:12:52;;;;;;;12.77;7.40;;;-0.20;99.90;;;;;;5075962;28;20035;-81
2024/01/17 07:15:18;;;;;;;10.95;7.32;;;-0.30;99.90;;;;;;5093993;28;20467;-81
2024/01/17 07:17:44;;;;;;;10.55;7.25;;;-0.30;99.90;;;;;;5093757;28;20031;-81
2024/01/17 07:20:10;;;;;;;11.30;6.78;;;-0.30;99.90;;;;;;5059540;28;20142;-82
2024/01/17 07:22:42;;;;;;;12.38;7.32;;;-0.30;99.90;;;;;;5059123;28;20028;-81
2024/01/17 07:25:13;;;;;;;12.48;7.20;;;-0.20;99.90;;;;;;5075637;28;20020;-81
2024/01/17 07:27:45;;;;;;;11.90;6.50;;;-0.30;99.90;;;;;;5070988;28;20036;-81
2024/01/17 07:30:12;;;;;;;9.05;6.55;;;-0.30;99.90;;;;;;5094015;28;20055;-81
2024/01/17 07:32:38;;;;;;;14.35;6.97;;;-0.20;99.90;;;;;;5071572;28;20103;-80
2024/01/17 07:35:05;;;;;;;10.45;7.03;;;-0.20;99.90;;;;;;5055328;28;20039;-81
2024/01/17 07:37:35;;;;;;;9.73;6.95;;;-0.20;99.90;;;;;;5055403;28;20078;-81
2024/01/17 07:40:00;;;;;;;13.20;7.30;;;-0.20;99.90;;;;;;5039465;28;20086;-81
2024/01/17 07:42:26;;;;;;;11.85;6.60;;;-0.20;99.90;;;;;;5055658;28;20057;-81
2024/01/17 07:44:52;;;;;;;12.52;6.57;;;-0.20;99.90;;;;;;5039081;28;20036;-81
2024/01/17 07:47:18;;;;;;;11.60;6.55;;;-0.20;99.90;;;;;;5038901;28;20036;-81
2024/01/17 07:49:44;;;;;;;13.77;7.55;;;-0.20;99.90;;;;;;5039367;28;20425;-81
2024/01/17 07:52:10;;;;;;;10.07;6.43;;;-0.20;99.90;;;;;;5056902;28;20044;-83
2024/01/17 07:54:36;;;;;;;10.93;6.30;;;-0.20;99.90;;;;;;5059585;28;20574;-82
2024/01/17 07:57:03;;;;;;;10.70;6.18;;;-0.20;99.90;;;;;;5078615;28;20041;-81
2024/01/17 07:59:30;;;;;;;10.13;6.68;;;-0.20;99.90;;;;;;5064013;28;20045;-81
2024/01/17 08:01:56;;;;;;;11.82;6.68;;;-0.20;99.90;;;;;;5079154;28;20032;-80
2024/01/17 08:04:24;;;;;;;11.93;7.25;;;-0.20;99.90;;;;;;5060052;28;20031;-81
2024/01/17 08:06:49;;;;;;;10.45;6.63;;;-0.20;99.90;;;;;;5055925;28;20032;-80
2024/01/17 08:09:22;;;;;;;12.30;7.13;;;-0.20;99.90;;;;;;5055221;28;20028;-81
2024/01/17 08:11:49;;;;;;;12.10;6.47;;;-0.20;99.90;;;;;;5055463;28;20024;-80
2024/01/17 08:14:15;;;;;;;11.38;6.88;;;-0.20;99.90;;;;;;5055401;28;20486;-80
2024/01/17 08:16:41;;;;;;;11.52;6.85;;;-0.10;99.90;;;;;;5038931;28;20064;-79
2024/01/17 08:19:06;;;;;;;12.15;6.68;;;-0.20;99.90;;;;;;5055436;28;20033;-79
2024/01/17 08:21:32;;;;;;;12.18;7.22;;;-0.10;99.90;;;;;;5056225;28;20381;-81
2024/01/17 08:23:59;;;;;;;14.50;6.72;;;-0.10;99.90;;;;;;5055137;28;20078;-81
2024/01/17 08:26:25;;;;;;;12.18;6.90;;;-0.10;99.90;;;;;;5055731;28;20116;-81
2024/01/17 08:28:51;;;;;;;11.55;6.70;;;-0.10;99.90;;;;;;5038542;28;20036;-81
2024/01/17 08:31:17;;;;;;;10.63;6.53;;;-0.10;99.90;;;;;;5038851;28;20025;-81
2024/01/17 08:33:42;;;;;;;10.45;6.75;;;0.00;99.90;;;;;;5055225;28;20449;-81
2024/01/17 08:36:08;;;;;;;10.45;6.93;;;0.00;99.90;;;;;;5038440;28;20036;-81
2024/01/17 08:38:35;;;;;;;11.15;7.50;;;0.00;99.90;;;;;;5055351;28;20032;-82
2024/01/17 08:41:01;;;;;;;11.93;6.80;;;0.00;99.90;;;;;;5072978;28;20029;-81
2024/01/17 08:43:26;;;;;;;12.68;6.95;;;0.00;99.90;;;;;;5055755;28;20037;-80
2024/01/17 08:45:52;;;;;;;10.35;6.82;;;0.10;99.90;;;;;;5038197;28;20123;-81
2024/01/17 08:48:18;;;;;;;11.40;7.18;;;0.10;99.90;;;;;;5038745;28;20032;-80
2024/01/17 08:50:43;;;;;;;11.45;7.85;;;0.10;99.90;;;;;;5038801;28;20033;-81
2024/01/17 08:53:09;;;;;;;11.48;7.07;;;0.10;99.90;;;;;;5038301;28;20464;-81
2024/01/17 08:55:35;;;;;;;11.13;7.47;;;0.20;99.90;;;;;;5073158;28;20036;-81
2024/01/17 08:58:00;;;;;;;12.25;7.63;;;0.20;99.90;;;;;;5055074;28;20056;-81
2024/01/17 09:00:26;;;;;;;10.55;7.00;;;0.20;99.90;;;;;;5042106;28;20412;-81
2024/01/17 09:02:52;;;;;;;11.63;7.75;;;0.20;99.90;;;;;;5059294;28;20025;-80
2024/01/17 09:05:20;;;;;;;11.30;7.15;;;0.20;99.90;;;;;;5060024;28;20044;-81
2024/01/17 09:07:48;;;;;;;10.85;7.07;;;0.30;99.90;;;;;;5044080;28;20024;-81
2024/01/17 09:10:17;;;;;;;12.50;7.38;;;0.30;99.90;;;;;;5091467;28;20015;-80
2024/01/17 09:12:43;;;;;;;12.95;8.15;;;0.30;99.90;;;;;;5066163;28;20084;-81
2024/01/17 09:15:09;;;;;;;15.73;8.30;;;0.40;99.90;;;;;;5082230;28;20041;-81
2024/01/17 09:17:35;;;;;;;13.70;7.35;;;0.40;99.90;;;;;;5038280;28;20020;-81
2024/01/17 09:20:00;;;;;;;13.02;7.60;;;0.40;99.90;;;;;;5058618;28;20067;-80
2024/01/17 09:22:26;;;;;;;12.25;8.15;;;0.40;99.90;;;;;;5042162;28;20052;-81
2024/01/17 09:24:52;;;;;;;14.30;8.55;;;0.50;99.90;;;;;;5058108;28;20565;-81
2024/01/17 09:27:18;;;;;;;12.95;7.32;;;0.50;99.90;;;;;;5025507;28;20025;-81
2024/01/17 09:29:45;;;;;;;13.98;8.38;;;0.50;99.90;;;;;;5041855;28;20157;-81
2024/01/17 09:32:12;;;;;;;11.00;7.78;;;0.50;99.90;;;;;;5058080;28;20552;-81
2024/01/17 09:34:38;;;;;;;12.02;7.68;;;0.60;99.90;;;;;;5041704;28;20119;-81
2024/01/17 09:37:05;;;;;;;13.93;8.00;;;0.60;99.90;;;;;;5058183;28;20028;-81
2024/01/17 09:39:33;;;;;;;14.48;7.68;;;0.60;99.90;;;;;;5041709;28;20036;-81
2024/01/17 09:41:59;;;;;;;15.95;8.10;;;0.70;99.90;;;;;;5058228;28;20039;-81
2024/01/17 09:44:28;;;;;;;11.77;7.68;;;0.70;99.90;;;;;;5041906;28;20025;-82
2024/01/17 09:46:58;;;;;;;14.95;8.13;;;0.70;99.90;;;;;;5042111;28;20029;-82
2024/01/17 09:49:27;;;;;;;12.67;7.53;;;0.70;99.90;;;;;;5058111;28;20017;-82
2024/01/17 09:51:53;;;;;;;12.48;7.40;;;0.80;99.90;;;;;;5041376;28;20060;-82
2024/01/17 09:54:24;;;;;;;12.27;8.65;;;0.80;99.90;;;;;;5040978;28;20029;-81
2024/01/17 09:56:51;;;;;;;12.27;8.05;;;0.80;99.90;;;;;;5057447;28;20377;-81
2024/01/17 09:59:21;;;;;;;13.70;8.25;;;0.80;99.90;;;;;;5057553;28;20380;-81
2024/01/17 10:01:47;;;;;;;16.60;8.45;;;0.90;99.90;;;;;;5075512;28;20067;-80
2024/01/17 10:04:14;;;;;;;14.50;8.52;;;0.80;99.90;;;;;;5040901;28;20061;-81
2024/01/17 10:06:44;;;;;;;12.80;8.20;;;0.90;99.90;;;;;;5057637;28;20028;-81
2024/01/17 10:09:11;;;;;;;11.70;8.23;;;0.90;99.90;;;;;;5075390;28;20070;-80
2024/01/17 10:11:38;;;;;;;14.85;9.75;;;1.00;99.90;;;;;;5041085;28;20049;-81
2024/01/17 10:14:04;;;;;;;14.65;9.57;;;0.90;99.90;;;;;;5057332;28;20021;-81
2024/01/17 10:16:31;;;;;;;13.63;8.93;;;1.00;99.90;;;;;;5057275;28;20051;-81
2024/01/17 10:18:57;;;;;;;14.60;9.38;;;1.00;99.90;;;;;;5041062;28;20071;-81
2024/01/17 10:21:26;;;;;;;15.43;8.60;;;1.00;99.90;;;;;;5057396;28;20035;-82
2024/01/17 10:23:51;;;;;;;15.13;9.02;;;1.10;99.90;;;;;;5044415;28;20082;-82
2024/01/17 10:26:19;;;;;;;14.98;9.18;;;1.10;99.90;;;;;;5064426;28;20008;-84
2024/01/17 10:28:45;;;;;;;15.95;8.35;;;1.10;99.90;;;;;;5099661;28;20027;-84
2024/01/17 10:31:11;;;;;;;14.90;8.32;;;1.10;99.90;;;;;;5081669;28;20004;-84
2024/01/17 10:33:39;;;;;;;14.70;9.23;;;1.10;99.90;;;;;;5048359;28;20028;-84
2024/01/17 10:36:05;;;;;;;14.13;8.95;;;1.20;99.90;;;;;;5075644;28;20085;-83
2024/01/17 10:38:32;;;;;;;13.52;8.60;;;1.20;99.90;;;;;;5057107;28;20028;-83
2024/01/17 10:41:05;;;;;;;14.55;9.45;;;1.20;99.90;;;;;;5057260;28;20020;-84
2024/01/17 10:43:31;;;;;;;12.55;8.43;;;1.20;99.90;;;;;;5057069;28;20028;-84
2024/01/17 10:46:00;;;;;;;14.20;8.35;;;1.30;99.90;;;;;;5023507;28;20527;-84
2024/01/17 10:48:26;;;;;;;12.88;8.15;;;1.30;99.90;;;;;;5074372;28;20532;-84
2024/01/17 10:50:59;;;;;;;12.43;8.63;;;1.30;99.90;;;;;;5040281;28;20060;-84
2024/01/17 10:53:29;;;;;;;14.10;8.18;;;1.30;99.90;;;;;;5056830;28;20036;-84
2024/01/17 10:56:01;;;;;;;14.48;9.00;;;1.30;99.90;;;;;;5056789;28;20131;-84
2024/01/17 10:58:28;;;;;;;15.02;9.25;;;1.40;99.90;;;;;;5052659;28;20110;-83
2024/01/17 11:00:54;;;;;;;14.25;8.90;;;1.40;99.90;;;;;;5053424;28;20040;-82
2024/01/17 11:03:21;;;;;;;14.13;9.10;;;1.40;99.90;;;;;;5036423;28;20048;-83
2024/01/17 11:05:51;;;;;;;13.52;8.55;;;1.40;99.90;;;;;;5036716;28;20025;-84
2024/01/17 11:08:18;;;;;;;15.23;8.82;;;1.50;99.90;;;;;;5053948;28;20032;-84
2024/01/17 11:10:45;;;;;;;12.70;8.40;;;1.50;99.90;;;;;;5020294;28;20056;-84
2024/01/17 11:13:13;;;;;;;15.85;8.40;;;1.50;99.90;;;;;;5052800;28;20021;-84
2024/01/17 11:15:41;;;;;;;15.77;8.65;;;1.60;99.90;;;;;;5052747;28;20178;-83
2024/01/17 11:18:12;;;;;;;13.82;8.88;;;1.60;99.90;;;;;;5053175;28;20025;-85
2024/01/17 11:20:40;;;;;;;13.07;8.77;;;1.60;99.90;;;;;;5053970;28;20029;-85
2024/01/17 11:23:11;;;;;;;16.27;9.32;;;1.60;99.90;;;;;;5052743;28;20098;-84
2024/01/17 11:25:54;;;;;;;15.32;9.10;;;1.60;99.90;;;;;;5054305;28;20040;-84
2024/01/17 11:28:56;;;;;;;17.20;8.93;;;1.60;99.90;;;;;;5052662;28;20036;-83
2024/01/17 11:31:36;;;;;;;14.32;9.30;;;1.60;99.90;;;;;;5052862;28;20033;-84
2024/01/17 11:34:02;;;;;;;14.60;9.00;;;1.60;99.90;;;;;;5053277;28;20032;-84
2024/01/17 11:36:46;;;;;;;11.95;8.50;;;1.60;99.90;;;;;;5054482;28;20035;-84
2024/01/17 11:39:16;;;;;;;15.57;9.32;;;1.60;99.90;;;;;;5055007;28;20079;-82
2024/01/17 11:41:48;;;;;;;14.45;8.60;;;1.70;99.90;;;;;;5069143;28;20017;-83
2024/01/17 11:44:15;;;;;;;17.17;9.30;;;1.70;99.90;;;;;;5077192;28;20031;-83
2024/01/17 11:46:41;;;;;;;14.35;9.30;;;1.70;99.90;;;;;;5077451;28;20025;-84
2024/01/17 11:49:17;;;;;;;13.90;8.82;;;1.70;99.90;;;;;;5065166;28;20484;-84
2024/01/17 11:51:44;;;;;;;16.60;8.35;;;1.70;99.90;;;;;;5053559;28;20017;-85
2024/01/17 11:54:12;;;;;;;14.60;8.68;;;1.70;99.90;;;;;;5052728;28;20109;-84
2024/01/17 11:56:38;;;;;;;16.23;9.18;;;1.70;99.90;;;;;;5052391;28;20029;-86
2024/01/17 11:59:09;;;;;;;12.75;8.32;;;1.70;99.90;;;;;;5052124;28;20056;-85
2024/01/17 12:01:35;;;;;;;15.80;9.15;;;1.70;99.90;;;;;;5052359;28;20496;-85
2024/01/17 12:04:10;;;;;;;14.13;9.00;;;1.70;99.90;;;;;;5052316;28;20130;-84
2024/01/17 12:06:37;;;;;;;16.50;9.15;;;1.80;99.90;;;;;;5053437;28;20054;-84
2024/01/17 12:09:05;;;;;;;10.85;8.18;;;1.80;99.90;;;;;;5054027;28;20460;-85
2024/01/17 12:11:31;;;;;;;17.63;9.48;;;1.80;99.90;;;;;;5053523;28;20473;-85
2024/01/17 12:13:57;;;;;;;17.67;9.40;;;1.80;99.90;;;;;;5052325;28;20029;-84
2024/01/17 12:16:23;;;;;;;12.77;8.55;;;1.80;99.90;;;;;;5051917;28;20115;-84
2024/01/17 12:18:59;;;;;;;13.77;9.00;;;1.90;99.90;;;;;;5052135;28;20025;-84
2024/01/17 12:21:25;;;;;;;13.98;9.25;;;1.90;99.90;;;;;;5052158;28;20026;-84
2024/01/17 12:23:51;;;;;;;13.65;8.63;;;1.90;99.90;;;;;;5035803;28;20103;-85
2024/01/17 12:26:17;;;;;;;13.10;9.18;;;1.90;99.90;;;;;;5052329;28;20033;-85
2024/01/17 12:28:42;;;;;;;12.90;9.18;;;2.00;99.90;;;;;;5053088;28;20033;-84
2024/01/17 12:31:08;;;;;;;12.75;8.75;;;2.00;99.90;;;;;;5035898;28;20021;-85
2024/01/17 12:33:36;;;;;;;14.43;8.93;;;2.00;99.90;;;;;;5055599;28;20361;-85
2024/01/17 12:36:03;;;;;;;13.00;9.00;;;2.00;99.90;;;;;;5056233;28;20032;-86
2024/01/17 12:38:39;;;;;;;13.38;8.75;;;2.00;99.90;;;;;;5039337;28;20029;-85
2024/01/17 12:41:05;;;;;;;16.10;9.35;;;2.00;99.90;;;;;;5056003;28;20024;-85
2024/01/17 12:43:35;;;;;;;12.68;8.73;;;2.00;99.90;;;;;;5055650;28;20060;-84